Ellerslie, Georgia
Current Conditions -  °F | °C
As of 10:51 PM on Tuesday 21 Oct 2014 (Local Time) from KCSG Reporting Station
Clear Clear  
Wind Chill: 64°   Ceiling: Unl
Heat Index: 64°   Visibility: 10mi
Dew Point: 54°   Wind: 0mph
Humidity: 70%   Direction: NA
Pressure: 30.01"   Gusts: NA
Location:  32.63°N, 84.8°W
Report Text: KCSG 220251Z AUTO 00000KT 10SM CLR 18/12 A3001 RMK AO2 SLP158 T01780122 52015
Loading
Personal Weather Stations






























Interactive Weather Map New forecast layout! Learn more

10-Day Weather Forecast

Advertisements
Track Severe Weather on mobile